Time;durP1;ratioP1;P1;durP2;ratioP2;P2;SDS_P1;SDS_P2;PMS_P1;PMS_P2;Temp;Humidity;BMP_temperature;BMP_pressure;BME280_temperature;BME280_humidity;BME280_pressure;Samples;Min_cycle;Max_cycle;Signal;HPM_P1;HPM_P2
2022/11/09 00:03:47;;;;;;;159.17;92.13;;;7.90;99.90;;;;;;10447828;28;20033;-78
2022/11/09 00:08:47;;;;;;;144.87;85.67;;;7.90;99.90;;;;;;10447857;28;20082;-78
2022/11/09 00:13:48;;;;;;;151.00;75.93;;;7.90;99.90;;;;;;10448551;28;20090;-80
2022/11/09 00:18:50;;;;;;;108.83;53.07;;;7.80;99.90;;;;;;10447048;28;20048;-79
2022/11/09 00:23:51;;;;;;;99.80;47.10;;;7.90;99.90;;;;;;10446805;28;20569;-81
2022/11/09 00:28:52;;;;;;;91.57;43.80;;;7.90;99.90;;;;;;10448157;28;20025;-78
2022/11/09 00:33:54;;;;;;;93.97;46.27;;;7.90;99.90;;;;;;10446570;28;20102;-79
2022/11/09 00:38:57;;;;;;;88.67;43.37;;;7.90;99.90;;;;;;10447393;28;20400;-78
2022/11/09 00:43:58;;;;;;;111.00;54.43;;;7.90;99.90;;;;;;10446599;28;20033;-79
2022/11/09 00:48:59;;;;;;;100.33;49.17;;;7.90;99.90;;;;;;10446022;28;20056;-78
2022/11/09 00:53:59;;;;;;;107.80;52.20;;;7.90;99.90;;;;;;10446860;28;20423;-78
2022/11/09 00:59:00;;;;;;;92.03;46.43;;;7.80;99.90;;;;;;10428735;28;20033;-78
2022/11/09 01:04:00;;;;;;;93.23;45.50;;;7.80;99.90;;;;;;10445690;28;20047;-78
2022/11/09 01:09:01;;;;;;;89.77;43.93;;;7.80;99.90;;;;;;10446498;28;20037;-78
2022/11/09 01:14:02;;;;;;;101.60;45.93;;;7.80;99.90;;;;;;10445310;28;20031;-81
2022/11/09 01:19:02;;;;;;;88.27;40.07;;;7.80;99.90;;;;;;10445542;28;20037;-78
2022/11/09 01:24:03;;;;;;;90.53;42.00;;;7.80;99.90;;;;;;10445383;28;20029;-78
2022/11/09 01:29:04;;;;;;;84.50;37.73;;;7.80;99.90;;;;;;10445824;28;20025;-78
2022/11/09 01:34:04;;;;;;;85.17;37.90;;;7.70;99.90;;;;;;10445932;28;20395;-78
2022/11/09 01:39:05;;;;;;;91.03;40.07;;;7.80;99.90;;;;;;10445140;28;20045;-78
2022/11/09 01:44:07;;;;;;;95.27;44.13;;;7.80;99.90;;;;;;10445245;28;20502;-78
2022/11/09 01:49:23;;;;;;;95.97;41.43;;;7.80;99.90;;;;;;10444642;28;20057;-79
2022/11/09 01:54:28;;;;;;;94.40;42.45;;;7.90;99.90;;;;;;10445340;28;20029;-79
2022/11/09 01:59:34;;;;;;;82.90;39.53;;;7.90;99.90;;;;;;10445641;28;20598;-79
2022/11/09 02:04:47;;;;;;;88.38;40.30;;;7.90;99.90;;;;;;10444745;28;20974;-79
2022/11/09 02:09:59;;;;;;;86.23;38.40;;;8.00;99.90;;;;;;10443796;28;20036;-80
2022/11/09 02:15:03;;;;;;;85.00;36.70;;;8.10;99.90;;;;;;10445066;28;20033;-77
2022/11/09 02:20:10;;;;;;;79.27;36.03;;;8.10;99.90;;;;;;10443689;28;20148;-78
2022/11/09 02:25:13;;;;;;;84.97;38.23;;;8.00;99.90;;;;;;10444433;28;20035;-79
2022/11/09 02:30:14;;;;;;;81.67;37.30;;;8.10;99.90;;;;;;10444132;28;20044;-78
2022/11/09 02:35:15;;;;;;;79.57;35.73;;;8.10;99.90;;;;;;10444403;28;20258;-78
2022/11/09 02:40:22;;;;;;;73.10;33.30;;;8.10;99.90;;;;;;10445141;28;20033;-80
2022/11/09 02:45:23;;;;;;;66.47;30.63;;;8.10;99.90;;;;;;10450650;28;20039;-80
2022/11/09 02:50:24;;;;;;;72.77;32.93;;;8.10;99.90;;;;;;10451112;28;20029;-80
2022/11/09 02:55:25;;;;;;;67.83;31.40;;;8.10;99.90;;;;;;10450896;28;20033;-81
2022/11/09 03:00:25;;;;;;;63.23;30.57;;;8.20;99.90;;;;;;10450693;28;20885;-77
2022/11/09 03:05:26;;;;;;;61.13;29.33;;;8.20;99.90;;;;;;10451070;28;20028;-78
2022/11/09 03:10:27;;;;;;;63.70;30.30;;;8.20;99.90;;;;;;10449875;28;20299;-77
2022/11/09 03:15:27;;;;;;;67.83;32.50;;;8.20;99.90;;;;;;10448226;28;20400;-78
2022/11/09 03:20:28;;;;;;;68.60;32.10;;;8.20;99.90;;;;;;10450713;28;20025;-78
2022/11/09 03:25:29;;;;;;;71.47;32.90;;;8.30;99.90;;;;;;10449057;28;20032;-78
2022/11/09 03:30:30;;;;;;;66.13;32.20;;;8.20;99.90;;;;;;10448758;28;20044;-78
2022/11/09 03:35:31;;;;;;;61.17;30.20;;;8.20;99.90;;;;;;10448636;28;20048;-78
2022/11/09 03:40:31;;;;;;;68.60;31.43;;;8.20;99.90;;;;;;10449330;28;20032;-77
2022/11/09 03:45:32;;;;;;;68.23;30.97;;;8.10;99.90;;;;;;10448061;28;20127;-79
2022/11/09 03:50:33;;;;;;;64.47;31.20;;;8.10;99.90;;;;;;10449303;28;20101;-78
2022/11/09 03:55:34;;;;;;;65.60;29.53;;;8.00;99.90;;;;;;10447855;28;20064;-80
2022/11/09 04:00:35;;;;;;;66.63;29.47;;;8.00;99.90;;;;;;10447697;28;20116;-78
2022/11/09 04:05:35;;;;;;;63.97;29.40;;;7.90;99.90;;;;;;10447631;28;20087;-78
2022/11/09 04:10:36;;;;;;;63.30;30.63;;;7.90;99.90;;;;;;10447672;28;20025;-78
2022/11/09 04:15:36;;;;;;;68.87;32.03;;;7.80;99.90;;;;;;10447350;28;20132;-78
2022/11/09 04:20:37;;;;;;;64.27;28.73;;;7.80;99.90;;;;;;10448271;28;20540;-78
2022/11/09 04:25:39;;;;;;;67.53;31.83;;;7.70;99.90;;;;;;10447208;28;20029;-78
2022/11/09 04:30:40;;;;;;;69.33;30.20;;;7.60;99.90;;;;;;10446951;28;20058;-77
2022/11/09 04:35:40;;;;;;;71.97;32.37;;;7.60;99.90;;;;;;10446517;28;20106;-78
2022/11/09 04:40:41;;;;;;;76.07;33.57;;;7.60;99.90;;;;;;10446391;28;20035;-78
2022/11/09 04:45:43;;;;;;;79.03;35.17;;;7.70;99.90;;;;;;10441921;28;20061;-78
2022/11/09 04:50:43;;;;;;;75.70;35.40;;;7.70;99.90;;;;;;10445833;28;20106;-79
2022/11/09 04:55:44;;;;;;;75.60;34.50;;;7.80;99.90;;;;;;10445720;28;20097;-81
2022/11/09 05:00:44;;;;;;;75.97;34.50;;;7.80;99.90;;;;;;10442219;28;20056;-80
2022/11/09 05:05:45;;;;;;;72.97;32.47;;;7.80;99.90;;;;;;10444265;28;20033;-78
2022/11/09 05:10:45;;;;;;;77.50;35.37;;;7.80;99.90;;;;;;10432868;28;20075;-79
2022/11/09 05:15:46;;;;;;;76.23;33.00;;;7.70;99.90;;;;;;10444146;28;20449;-81
2022/11/09 05:20:46;;;;;;;74.03;33.53;;;7.60;99.90;;;;;;10445447;28;20032;-77
2022/11/09 05:25:47;;;;;;;72.07;33.73;;;7.50;99.90;;;;;;10444089;28;20032;-80
2022/11/09 05:30:48;;;;;;;73.13;33.33;;;7.50;99.90;;;;;;10442827;28;20477;-78
2022/11/09 05:35:48;;;;;;;71.37;33.93;;;7.40;99.90;;;;;;10439615;28;20485;-81
2022/11/09 05:40:50;;;;;;;67.60;31.27;;;7.40;99.90;;;;;;10442561;28;20071;-78
2022/11/09 05:45:50;;;;;;;72.10;34.53;;;7.40;99.90;;;;;;10444019;28;20052;-77
2022/11/09 05:50:51;;;;;;;69.70;33.57;;;7.40;99.90;;;;;;10444461;28;20033;-78
2022/11/09 05:55:52;;;;;;;74.57;36.37;;;7.40;99.90;;;;;;10444937;28;20029;-81
2022/11/09 06:00:52;;;;;;;72.90;34.20;;;7.40;99.90;;;;;;10444636;28;20048;-81
2022/11/09 06:05:53;;;;;;;78.20;37.80;;;7.30;99.90;;;;;;10438220;28;20151;-78
2022/11/09 06:11:04;;;;;;;77.70;37.73;;;7.30;99.90;;;;;;10444264;28;20036;-78
2022/11/09 06:16:06;;;;;;;80.83;38.20;;;7.20;99.90;;;;;;10448630;28;20553;-80
2022/11/09 06:21:06;;;;;;;81.07;36.67;;;7.20;99.90;;;;;;10449262;28;20068;-79
2022/11/09 06:26:09;;;;;;;78.60;36.57;;;7.20;99.90;;;;;;10452117;28;20629;-77
2022/11/09 06:31:13;;;;;;;84.03;38.20;;;7.30;99.90;;;;;;10451819;28;20033;-78
2022/11/09 06:36:13;;;;;;;80.63;38.93;;;7.40;99.90;;;;;;10451756;28;20021;-78
2022/11/09 06:41:14;;;;;;;86.37;39.20;;;7.50;99.90;;;;;;10451934;28;20025;-77
2022/11/09 06:46:17;;;;;;;84.97;40.37;;;7.60;99.90;;;;;;10451005;28;20540;-78
2022/11/09 06:51:18;;;;;;;83.03;37.83;;;7.70;99.90;;;;;;10451337;28;20033;-77
2022/11/09 06:56:18;;;;;;;82.87;36.30;;;7.80;99.90;;;;;;10450964;28;20045;-80
2022/11/09 07:01:25;;;;;;;79.97;36.17;;;8.00;99.90;;;;;;10450317;28;20033;-78
2022/11/09 07:06:25;;;;;;;73.03;34.13;;;8.20;99.90;;;;;;10451349;28;20115;-78
2022/11/09 07:11:26;;;;;;;71.47;32.50;;;8.40;99.90;;;;;;10450632;28;20107;-79
2022/11/09 07:16:28;;;;;;;67.80;33.57;;;8.50;99.90;;;;;;10449749;28;20041;-78
2022/11/09 07:21:28;;;;;;;71.60;32.90;;;8.70;99.90;;;;;;10450853;28;20028;-78
2022/11/09 07:26:29;;;;;;;70.73;32.00;;;9.00;99.90;;;;;;10448823;28;20025;-78
2022/11/09 07:31:30;;;;;;;69.87;33.43;;;9.20;99.90;;;;;;10449823;28;20037;-78
2022/11/09 07:36:32;;;;;;;65.50;31.23;;;9.40;99.90;;;;;;10449691;28;20028;-78
2022/11/09 07:41:32;;;;;;;59.20;29.52;;;9.70;99.90;;;;;;10448986;28;20028;-78
2022/11/09 07:46:34;;;;;;;57.50;30.13;;;9.90;99.90;;;;;;10447399;28;20075;-81
2022/11/09 07:51:34;;;;;;;60.10;30.73;;;10.20;99.90;;;;;;10442073;28;20121;-78
2022/11/09 07:56:36;;;;;;;66.57;31.60;;;10.40;99.90;;;;;;10444242;28;20045;-77
2022/11/09 08:01:36;;;;;;;53.28;27.00;;;10.70;99.90;;;;;;10449018;28;20064;-78
2022/11/09 08:06:37;;;;;;;57.30;28.02;;;10.90;99.90;;;;;;10447143;28;20120;-78
2022/11/09 08:11:37;;;;;;;56.03;29.38;;;11.10;99.90;;;;;;10430504;28;20120;-79
2022/11/09 08:16:38;;;;;;;55.50;28.17;;;11.30;99.90;;;;;;10447441;28;20048;-77
2022/11/09 08:21:39;;;;;;;46.03;23.42;;;11.40;99.90;;;;;;10447535;28;20037;-76
2022/11/09 08:26:39;;;;;;;44.40;23.63;;;11.50;99.90;;;;;;10447186;28;20481;-77
2022/11/09 08:31:40;;;;;;;42.03;20.83;;;11.50;99.90;;;;;;10446896;28;20037;-78
2022/11/09 08:36:41;;;;;;;49.65;26.45;;;11.50;99.90;;;;;;10446644;28;20856;-78
2022/11/09 08:41:42;;;;;;;110.43;61.20;;;11.50;99.90;;;;;;10445174;28;20031;-77
2022/11/09 08:46:42;;;;;;;66.07;30.00;;;11.50;99.90;;;;;;10447633;28;20057;-79
2022/11/09 08:51:43;;;;;;;66.18;30.95;;;11.50;99.90;;;;;;10447623;28;20024;-77
2022/11/09 08:56:45;;;;;;;50.13;25.45;;;11.60;99.90;;;;;;10446858;28;20048;-76
2022/11/09 09:01:45;;;;;;;51.38;26.00;;;11.60;99.90;;;;;;10446931;28;20040;-76
2022/11/09 09:06:46;;;;;;;52.00;24.98;;;11.60;99.90;;;;;;10432832;28;20032;-78
2022/11/09 09:11:46;;;;;;;51.75;26.23;;;11.70;99.90;;;;;;10447339;28;20086;-78
2022/11/09 09:16:47;;;;;;;44.35;22.10;;;11.70;99.90;;;;;;10446095;28;20052;-80
2022/11/09 09:21:47;;;;;;;43.70;23.33;;;11.70;99.90;;;;;;10446183;28;20506;-78
2022/11/09 09:26:48;;;;;;;46.33;24.45;;;11.70;99.90;;;;;;10446209;28;20357;-77
2022/11/09 09:31:49;;;;;;;43.03;21.95;;;11.70;99.90;;;;;;10445547;28;20029;-75
2022/11/09 09:36:52;;;;;;;39.72;21.35;;;11.70;99.90;;;;;;10445826;28;20051;-77
2022/11/09 09:41:57;;;;;;;41.40;21.67;;;11.70;99.90;;;;;;10445586;28;20036;-78
2022/11/09 09:47:11;;;;;;;41.97;21.63;;;11.70;99.90;;;;;;10445724;28;20049;-77
2022/11/09 09:52:44;;;;;;;37.53;21.27;;;12.00;99.90;;;;;;10444893;28;20107;-78
2022/11/09 09:57:52;;;;;;;37.25;19.52;;;12.30;99.90;;;;;;10446066;28;20078;-76
2022/11/09 10:02:53;;;;;;;36.47;19.67;;;12.60;99.90;;;;;;10445183;28;20071;-77
2022/11/09 10:08:09;;;;;;;42.95;22.50;;;12.70;99.90;;;;;;10445520;28;20043;-76
2022/11/09 10:13:21;;;;;;;35.35;18.38;;;12.80;99.90;;;;;;10445297;28;20029;-77
2022/11/09 10:18:41;;;;;;;34.17;19.30;;;12.80;99.90;;;;;;10445282;28;20507;-76
2022/11/09 10:23:47;;;;;;;36.40;17.92;;;12.80;99.90;;;;;;10445051;28;20027;-75
2022/11/09 10:28:54;;;;;;;35.00;18.85;;;12.80;99.90;;;;;;10444670;28;20116;-77
2022/11/09 10:34:00;;;;;;;35.50;19.52;;;13.00;99.90;;;;;;10445163;28;20029;-77
2022/11/09 10:39:00;;;;;;;33.50;17.55;;;13.20;99.90;;;;;;10444316;28;20120;-77
2022/11/09 10:44:01;;;;;;;30.08;15.73;;;13.30;99.90;;;;;;10444748;28;20032;-77
2022/11/09 10:49:18;;;;;;;31.05;16.42;;;13.40;99.90;;;;;;10443984;28;20135;-77
2022/11/09 10:54:22;;;;;;;29.90;15.93;;;13.50;99.90;;;;;;10444039;28;20025;-78
2022/11/09 10:59:43;;;;;;;29.90;15.80;;;13.70;99.90;;;;;;10443602;28;20029;-77
2022/11/09 11:04:44;;;;;;;30.10;16.08;;;13.90;99.90;;;;;;10445478;28;20039;-80
2022/11/09 11:09:44;;;;;;;25.75;15.00;;;13.90;99.90;;;;;;10448624;28;20037;-77
2022/11/09 11:14:45;;;;;;;27.52;14.93;;;14.10;99.90;;;;;;10451660;28;20104;-78
2022/11/09 11:19:46;;;;;;;25.20;14.57;;;14.20;99.90;;;;;;10449512;28;20111;-77
2022/11/09 11:24:54;;;;;;;26.55;14.90;;;14.30;99.90;;;;;;10449637;28;20446;-80
2022/11/09 11:30:27;;;;;;;27.48;15.68;;;14.40;99.90;;;;;;10450728;28;20049;-79
2022/11/09 11:35:41;;;;;;;24.85;13.98;;;14.50;99.90;;;;;;10445676;28;20025;-78
2022/11/09 11:40:52;;;;;;;25.75;14.98;;;14.60;99.90;;;;;;10449063;28;20449;-77
2022/11/09 11:46:01;;;;;;;32.65;16.65;;;14.60;99.90;;;;;;10431166;28;20689;-77
2022/11/09 11:51:15;;;;;;;29.05;16.80;;;14.80;99.90;;;;;;10448814;28;20063;-77
2022/11/09 11:56:25;;;;;;;26.90;15.25;;;14.80;99.90;;;;;;10448541;28;20044;-78
2022/11/09 12:01:45;;;;;;;24.30;13.93;;;14.90;99.90;;;;;;10449041;28;20069;-78
2022/11/09 12:07:26;;;;;;;21.60;12.35;;;15.00;99.90;;;;;;10448516;28;20044;-77
2022/11/09 12:12:50;;;;;;;19.83;11.63;;;15.10;99.20;;;;;;10437190;28;20041;-79
2022/11/09 12:18:16;;;;;;;22.60;13.00;;;14.80;97.80;;;;;;10447860;28;20484;-77
2022/11/09 12:23:42;;;;;;;22.27;12.27;;;14.50;99.20;;;;;;10441304;28;20044;-78
2022/11/09 12:29:17;;;;;;;25.15;11.95;;;14.30;99.20;;;;;;10447858;28;20029;-78
2022/11/09 12:34:35;;;;;;;20.38;11.45;;;14.20;99.80;;;;;;10447207;28;20039;-78
2022/11/09 12:39:53;;;;;;;22.60;12.38;;;14.30;99.90;;;;;;10447857;28;20037;-77
2022/11/09 12:45:08;;;;;;;18.38;11.07;;;14.50;99.90;;;;;;10447201;28;20037;-77
2022/11/09 12:50:22;;;;;;;22.05;12.45;;;14.60;99.90;;;;;;10441012;28;20066;-76
2022/11/09 12:55:39;;;;;;;31.13;17.80;;;14.50;99.90;;;;;;10423901;28;20119;-77
2022/11/09 13:00:43;;;;;;;34.15;17.02;;;14.40;99.90;;;;;;10436963;28;20040;-77
2022/11/09 13:05:46;;;;;;;34.63;18.67;;;14.30;99.90;;;;;;10446129;28;20021;-77
2022/11/09 13:11:20;;;;;;;82.30;40.90;;;14.30;99.90;;;;;;10444336;28;20025;-76
2022/11/09 13:16:33;;;;;;;64.20;31.83;;;14.10;99.90;;;;;;10438984;28;20538;-78
2022/11/09 13:21:35;;;;;;;66.72;35.15;;;14.00;99.90;;;;;;10444392;28;20102;-77
2022/11/09 13:26:35;;;;;;;37.05;19.60;;;14.00;99.90;;;;;;10444536;28;20091;-78
2022/11/09 13:32:07;;;;;;;29.58;16.27;;;14.10;99.90;;;;;;10443900;28;20111;-76
2022/11/09 13:37:43;;;;;;;34.42;19.33;;;14.30;99.90;;;;;;10443174;28;20037;-76
2022/11/09 13:43:08;;;;;;;31.65;17.80;;;14.40;99.90;;;;;;10443304;28;20083;-77
2022/11/09 13:48:41;;;;;;;30.23;14.52;;;14.40;99.90;;;;;;10442773;28;20092;-76
2022/11/09 13:53:48;;;;;;;34.38;18.25;;;14.30;99.90;;;;;;10468173;23;20071;-78
2022/11/09 13:58:50;;;;;;;27.58;15.52;;;14.10;99.90;;;;;;10486124;28;20498;-77
2022/11/09 14:03:51;;;;;;;28.00;15.05;;;13.90;99.90;;;;;;10485030;28;20111;-77
2022/11/09 14:08:51;;;;;;;24.02;14.27;;;13.70;99.90;;;;;;10483753;28;20032;-78
2022/11/09 14:14:02;;;;;;;31.42;16.83;;;13.60;99.90;;;;;;10486064;28;20046;-77
2022/11/09 14:19:20;;;;;;;37.60;18.77;;;13.40;99.90;;;;;;10489988;22;20126;-76
2022/11/09 14:24:27;;;;;;;32.42;16.88;;;13.20;99.90;;;;;;10482717;28;20539;-76
2022/11/09 14:29:31;;;;;;;43.97;21.75;;;13.10;99.90;;;;;;10485710;28;20604;-78
2022/11/09 14:34:32;;;;;;;35.33;18.60;;;13.00;99.90;;;;;;10479422;28;20743;-77
2022/11/09 14:39:33;;;;;;;34.75;17.35;;;12.90;99.90;;;;;;10492681;28;20035;-76
2022/11/09 14:44:39;;;;;;;38.88;21.00;;;12.90;99.90;;;;;;10491874;28;20032;-76
2022/11/09 14:49:40;;;;;;;36.22;19.33;;;12.80;99.90;;;;;;10492351;28;20391;-78
2022/11/09 14:54:40;;;;;;;36.50;20.02;;;12.70;99.90;;;;;;10491612;28;20024;-77
2022/11/09 14:59:44;;;;;;;32.00;17.55;;;12.50;99.90;;;;;;10491050;28;20045;-77
2022/11/09 15:04:50;;;;;;;34.17;18.23;;;12.30;99.90;;;;;;10490788;28;20093;-77
2022/11/09 15:09:57;;;;;;;41.85;22.45;;;12.10;99.90;;;;;;10491258;28;20025;-77
2022/11/09 15:15:03;;;;;;;35.88;19.00;;;12.00;99.90;;;;;;10491194;28;20032;-77
2022/11/09 15:20:12;;;;;;;38.05;20.40;;;11.90;99.90;;;;;;10480316;28;20055;-77
2022/11/09 15:25:26;;;;;;;53.53;27.25;;;11.70;99.90;;;;;;10490597;28;20384;-76
2022/11/09 15:30:29;;;;;;;50.00;26.60;;;11.50;99.90;;;;;;10472096;28;20059;-75
2022/11/09 15:35:29;;;;;;;52.63;26.77;;;11.40;99.90;;;;;;10490146;28;20076;-77
2022/11/09 15:40:30;;;;;;;57.38;27.85;;;11.30;99.90;;;;;;10489673;28;20099;-76
2022/11/09 15:45:30;;;;;;;54.88;27.92;;;11.20;99.90;;;;;;10489861;28;20064;-77
2022/11/09 15:50:31;;;;;;;51.50;26.83;;;11.10;99.90;;;;;;10488564;28;20476;-76
2022/11/09 15:55:32;;;;;;;55.13;29.52;;;11.00;99.90;;;;;;10489686;28;20036;-78
2022/11/09 16:00:32;;;;;;;77.82;37.08;;;10.90;99.90;;;;;;10488930;28;20036;-76
2022/11/09 16:05:33;;;;;;;55.05;26.77;;;10.80;99.90;;;;;;10488844;28;20036;-77
2022/11/09 16:10:36;;;;;;;53.22;28.23;;;10.80;99.90;;;;;;10488214;28;20036;-79
2022/11/09 16:15:37;;;;;;;62.83;31.15;;;10.60;99.90;;;;;;10486973;28;20101;-78
2022/11/09 16:20:39;;;;;;;60.47;30.70;;;10.50;99.90;;;;;;10488344;28;20107;-78
2022/11/09 16:25:39;;;;;;;65.32;34.05;;;10.50;99.90;;;;;;10489612;28;20480;-77
2022/11/09 16:30:40;;;;;;;58.80;31.48;;;10.40;99.90;;;;;;10488179;28;20028;-79
2022/11/09 16:35:40;;;;;;;88.75;44.13;;;10.40;99.90;;;;;;10476124;28;20032;-78
2022/11/09 16:40:43;;;;;;;105.53;50.90;;;10.30;99.90;;;;;;10487607;28;20036;-76
2022/11/09 16:45:47;;;;;;;77.90;40.03;;;10.10;99.90;;;;;;10485050;28;20030;-76
2022/11/09 16:50:47;;;;;;;71.17;37.23;;;10.00;99.90;;;;;;10487700;28;20059;-76
2022/11/09 16:55:48;;;;;;;59.80;31.57;;;9.90;99.90;;;;;;10483869;28;20455;-76
2022/11/09 17:00:50;;;;;;;76.77;38.17;;;9.90;99.90;;;;;;10391638;28;20028;-74
2022/11/09 17:05:51;;;;;;;63.80;32.70;;;9.90;99.90;;;;;;10484142;28;20028;-76
2022/11/09 17:10:51;;;;;;;62.07;32.37;;;9.90;99.90;;;;;;10483368;28;20370;-76
2022/11/09 17:15:52;;;;;;;63.63;33.60;;;9.90;99.90;;;;;;10483744;28;20028;-78
2022/11/09 17:20:53;;;;;;;74.03;37.77;;;9.80;99.90;;;;;;10466011;28;20160;-76
2022/11/09 17:25:59;;;;;;;68.50;37.10;;;9.80;99.90;;;;;;10484816;28;20042;-77
2022/11/09 17:31:00;;;;;;;73.83;38.93;;;9.80;99.90;;;;;;10466726;28;20031;-76
2022/11/09 17:36:03;;;;;;;67.93;35.43;;;9.80;99.90;;;;;;10484616;28;20044;-77
2022/11/09 17:41:09;;;;;;;77.57;39.87;;;9.80;99.90;;;;;;10481812;28;20031;-75
2022/11/09 17:46:19;;;;;;;75.80;39.30;;;9.80;99.90;;;;;;10437522;28;20663;-78
2022/11/09 17:51:20;;;;;;;78.80;38.87;;;9.70;99.90;;;;;;10485718;28;20032;-76
2022/11/09 17:56:20;;;;;;;79.97;40.30;;;9.70;99.90;;;;;;10482024;28;20043;-76
2022/11/09 18:01:21;;;;;;;107.47;52.67;;;9.80;99.90;;;;;;10483233;28;20029;-76
2022/11/09 18:06:22;;;;;;;99.03;51.13;;;9.70;99.90;;;;;;10481429;28;20495;-77
2022/11/09 18:11:23;;;;;;;95.60;48.23;;;9.60;99.90;;;;;;10473355;28;20024;-76
2022/11/09 18:16:24;;;;;;;78.77;40.80;;;9.50;99.90;;;;;;10489492;28;20040;-76
2022/11/09 18:21:26;;;;;;;84.73;43.53;;;9.40;99.90;;;;;;10474800;28;20720;-78
2022/11/09 18:26:27;;;;;;;79.53;39.37;;;9.30;99.90;;;;;;10489203;28;20121;-76
2022/11/09 18:31:28;;;;;;;70.40;36.63;;;9.30;99.90;;;;;;10490506;28;20178;-78
2022/11/09 18:36:28;;;;;;;81.90;40.70;;;9.30;99.90;;;;;;10486838;28;20036;-77
2022/11/09 18:41:29;;;;;;;85.00;42.50;;;9.30;99.90;;;;;;10478595;28;20652;-77
2022/11/09 18:46:32;;;;;;;103.30;51.20;;;9.30;99.90;;;;;;10485003;28;20570;-77
2022/11/09 18:51:32;;;;;;;126.73;60.67;;;9.30;99.90;;;;;;10480132;28;20053;-77
2022/11/09 18:56:33;;;;;;;139.17;60.67;;;9.20;99.90;;;;;;10478203;28;20116;-77
2022/11/09 19:01:33;;;;;;;163.27;70.43;;;9.20;99.90;;;;;;10489216;28;20801;-77
2022/11/09 19:06:34;;;;;;;82.53;39.80;;;9.10;99.90;;;;;;10485287;28;20033;-76
2022/11/09 19:11:35;;;;;;;76.23;37.77;;;9.10;99.90;;;;;;10488395;28;20037;-77
2022/11/09 19:16:35;;;;;;;84.37;42.43;;;9.00;99.90;;;;;;10485481;28;20127;-76
2022/11/09 19:21:43;;;;;;;82.67;41.27;;;9.00;99.90;;;;;;10487274;28;20060;-78
2022/11/09 19:26:45;;;;;;;88.63;44.37;;;9.00;99.90;;;;;;10484675;28;20029;-76
2022/11/09 19:31:47;;;;;;;94.27;46.73;;;9.00;99.90;;;;;;10487556;28;20036;-75
2022/11/09 19:36:48;;;;;;;98.97;49.63;;;8.90;99.90;;;;;;10502640;28;20387;-78
2022/11/09 19:41:49;;;;;;;102.93;48.33;;;8.90;99.90;;;;;;10491092;28;20035;-77
2022/11/09 19:46:49;;;;;;;103.97;53.70;;;8.80;99.90;;;;;;10484922;28;20509;-76
2022/11/09 19:51:50;;;;;;;104.13;52.27;;;8.80;99.90;;;;;;10492672;28;20037;-77
2022/11/09 19:56:50;;;;;;;106.33;54.00;;;8.80;99.90;;;;;;10489005;28;20782;-78
2022/11/09 20:01:51;;;;;;;119.97;59.77;;;8.70;99.90;;;;;;10489383;28;20028;-77
2022/11/09 20:06:51;;;;;;;115.17;57.93;;;8.70;99.90;;;;;;10490626;28;20078;-78
2022/11/09 20:17:11;;;;;;;105.87;51.57;;;8.60;99.90;;;;;;10483205;28;20048;-77
2022/11/09 20:22:12;;;;;;;119.17;55.97;;;8.60;99.90;;;;;;10482437;28;20049;-77
2022/11/09 20:27:13;;;;;;;112.47;56.00;;;8.60;99.90;;;;;;10483080;28;20025;-77
2022/11/09 20:32:14;;;;;;;119.83;56.40;;;8.60;99.90;;;;;;10464775;28;20031;-77
2022/11/09 20:37:16;;;;;;;126.03;59.63;;;8.60;99.90;;;;;;10482233;28;20033;-77
2022/11/09 20:42:16;;;;;;;118.47;56.23;;;8.50;99.90;;;;;;10482375;28;20036;-77
2022/11/09 20:47:17;;;;;;;103.43;51.77;;;8.50;99.90;;;;;;10481817;28;20024;-77
2022/11/09 20:52:17;;;;;;;104.53;50.97;;;8.50;99.90;;;;;;10481731;28;20035;-78
2022/11/09 20:57:20;;;;;;;115.33;56.40;;;8.50;99.90;;;;;;10480809;28;20109;-77
2022/11/09 21:02:20;;;;;;;103.17;50.17;;;8.50;99.90;;;;;;10482128;28;20036;-78
2022/11/09 21:07:21;;;;;;;103.30;50.00;;;8.50;99.90;;;;;;10482952;28;20039;-79
2022/11/09 21:12:23;;;;;;;94.33;45.13;;;8.50;99.90;;;;;;10481191;28;20031;-77
2022/11/09 21:17:24;;;;;;;83.53;39.87;;;8.60;99.90;;;;;;10480655;28;20559;-78
2022/11/09 21:29:48;;;;;;;78.70;37.03;;;8.60;99.90;;;;;;10477875;28;20140;-78
2022/11/09 21:33:07;;;;;;;77.23;38.70;;;8.70;99.90;;;;;;10477444;28;20130;-78
2022/11/09 21:38:07;;;;;;;69.20;32.43;;;8.70;99.90;;;;;;10480901;28;20036;-77
2022/11/09 21:43:08;;;;;;;61.63;31.60;;;8.70;99.90;;;;;;10478866;28;20047;-77
2022/11/09 21:48:08;;;;;;;61.63;30.73;;;8.80;99.90;;;;;;10478665;28;20033;-77
2022/11/09 21:53:09;;;;;;;57.23;28.60;;;8.80;99.90;;;;;;10479396;28;20037;-77
2022/11/09 21:58:09;;;;;;;60.37;30.30;;;8.80;99.90;;;;;;10479573;28;20038;-78
2022/11/09 22:03:10;;;;;;;62.20;29.83;;;8.80;99.90;;;;;;10478682;28;20033;-78
2022/11/09 22:08:10;;;;;;;53.00;26.80;;;8.80;99.90;;;;;;10478153;28;20119;-78
2022/11/09 22:23:54;;;;;;;63.80;31.03;;;8.70;99.90;;;;;;10479847;28;20068;-78
2022/11/09 22:28:58;;;;;;;67.87;33.93;;;8.70;99.90;;;;;;10479495;28;20131;-77
2022/11/09 22:33:59;;;;;;;70.83;33.30;;;8.70;99.90;;;;;;10478910;28;20074;-77
2022/11/09 22:39:00;;;;;;;69.57;31.53;;;8.70;99.90;;;;;;10477874;28;20113;-77
2022/11/09 22:44:00;;;;;;;63.10;31.67;;;8.70;99.90;;;;;;10478364;28;20033;-76
2022/11/09 22:49:01;;;;;;;62.13;31.00;;;8.60;99.90;;;;;;10478776;28;20086;-77
2022/11/09 22:54:01;;;;;;;63.57;29.87;;;8.60;99.90;;;;;;10477572;28;20036;-77
2022/11/09 22:59:02;;;;;;;74.27;36.83;;;8.60;99.90;;;;;;10483762;28;20090;-77
2022/11/09 23:04:03;;;;;;;60.17;30.77;;;8.60;99.90;;;;;;10484161;28;20498;-78
2022/11/09 23:09:04;;;;;;;53.53;27.77;;;8.60;99.90;;;;;;10485387;28;20134;-77
2022/11/09 23:14:04;;;;;;;51.87;27.93;;;8.60;99.90;;;;;;10486287;28;20033;-77
2022/11/09 23:19:05;;;;;;;52.03;26.10;;;8.60;99.90;;;;;;10486056;28;20095;-77
2022/11/09 23:25:52;;;;;;;59.80;28.00;;;8.60;99.90;;;;;;10485725;28;20048;-77
2022/11/09 23:29:27;;;;;;;49.27;26.17;;;8.60;99.90;;;;;;10484933;28;20048;-78
2022/11/09 23:34:27;;;;;;;61.43;30.40;;;8.70;99.90;;;;;;10484766;28;20031;-77
2022/11/09 23:39:28;;;;;;;67.47;33.57;;;8.60;99.90;;;;;;10484187;28;20039;-77
2022/11/09 23:44:28;;;;;;;59.37;31.50;;;8.70;99.90;;;;;;10483694;28;20033;-78
2022/11/09 23:49:29;;;;;;;63.20;30.07;;;8.70;99.90;;;;;;10484095;28;20035;-78
2022/11/09 23:54:30;;;;;;;66.33;33.63;;;8.70;99.90;;;;;;10482164;28;20028;-77
2022/11/09 23:59:30;;;;;;;57.90;27.97;;;8.70;99.90;;;;;;10483009;28;20037;-78
